Time;durP1;ratioP1;P1;durP2;ratioP2;P2;SDS_P1;SDS_P2;PMS_P1;PMS_P2;Temp;Humidity;BMP_temperature;BMP_pressure;BME280_temperature;BME280_humidity;BME280_pressure;Samples;Min_cycle;Max_cycle;Signal;HPM_P1;HPM_P2
2022/09/29 00:00:53;;;;;;;14.85;9.68;;;6.70;99.90;;;-144.05;82.61;125687.94;5034473;28;20036;-77
2022/09/29 00:03:22;;;;;;;14.88;9.60;;;6.60;99.90;;;-144.05;82.61;125687.94;5034564;28;20503;-77
2022/09/29 00:05:54;;;;;;;22.13;12.00;;;6.60;99.90;;;-144.05;83.04;125687.94;5034328;28;20028;-77
2022/09/29 00:08:26;;;;;;;14.32;10.05;;;6.60;99.90;;;-144.05;82.76;125687.94;5034771;28;20025;-77
2022/09/29 00:10:52;;;;;;;12.85;8.77;;;6.60;99.90;;;-144.05;82.76;125687.94;5033075;28;20036;-77
2022/09/29 00:13:18;;;;;;;15.52;10.68;;;6.50;99.90;;;-144.05;82.97;125687.94;5034110;28;20595;-77
2022/09/29 00:15:58;;;;;;;13.75;10.30;;;6.50;99.90;;;-144.05;83.08;125687.94;5032746;28;20069;-76
2022/09/29 00:18:25;;;;;;;14.77;9.70;;;6.50;99.90;;;-144.05;83.12;125687.94;5034317;28;20045;-76
2022/09/29 00:21:16;;;;;;;14.95;9.13;;;6.50;99.90;;;-144.05;82.90;125687.94;5034280;28;20481;-78
2022/09/29 00:23:42;;;;;;;12.80;9.35;;;6.60;99.90;;;-144.05;82.61;125687.94;5032674;28;20040;-77
2022/09/29 00:26:16;;;;;;;14.80;9.60;;;6.50;99.90;;;-144.05;82.65;125687.94;5034145;28;20075;-76
2022/09/29 00:28:57;;;;;;;16.90;9.45;;;6.40;99.90;;;-144.05;82.75;125687.94;5033967;28;20030;-77
2022/09/29 00:31:28;;;;;;;17.92;10.93;;;6.40;99.90;;;-144.05;82.63;125687.94;5034812;28;20057;-78
2022/09/29 00:33:55;;;;;;;13.07;9.45;;;6.40;99.90;;;-144.05;82.79;125687.94;5033948;28;20037;-77
2022/09/29 00:36:24;;;;;;;14.30;10.32;;;6.40;99.90;;;-144.05;82.89;125687.94;5033746;28;20029;-77
2022/09/29 00:38:53;;;;;;;16.98;12.10;;;6.40;99.90;;;-144.05;83.24;125687.94;5033345;28;20032;-77
2022/09/29 00:41:32;;;;;;;18.35;11.00;;;6.40;99.90;;;-144.05;83.61;125687.94;5033438;28;20500;-78
2022/09/29 00:44:03;;;;;;;17.15;10.77;;;6.40;99.90;;;-144.05;83.09;125687.94;5034233;28;20121;-78
2022/09/29 00:46:34;;;;;;;14.25;9.60;;;6.40;99.90;;;-144.05;83.06;125687.94;5034223;28;20494;-77
2022/09/29 00:49:44;;;;;;;14.82;10.05;;;6.40;99.90;;;-144.05;82.93;125687.94;5033231;28;20030;-77
2022/09/29 00:52:31;;;;;;;14.43;9.68;;;6.40;99.90;;;-144.05;82.96;125687.94;5033646;28;20033;-76
2022/09/29 00:55:38;;;;;;;15.52;9.85;;;6.40;99.90;;;-144.05;82.85;125687.94;5033637;28;20044;-77
2022/09/29 00:58:38;;;;;;;16.00;11.57;;;6.40;99.90;;;-144.05;82.67;125687.94;5033214;28;20036;-77
2022/09/29 01:01:06;;;;;;;18.00;11.60;;;6.40;99.90;;;-144.05;83.40;125687.94;5033487;28;20404;-78
2022/09/29 01:03:46;;;;;;;18.65;12.05;;;6.30;99.90;;;-144.05;83.67;125687.94;5033413;28;20040;-78
2022/09/29 01:06:44;;;;;;;19.33;11.40;;;6.40;99.90;;;-144.05;83.34;125687.94;5031567;28;20052;-77
2022/09/29 01:09:24;;;;;;;13.63;10.48;;;6.50;99.90;;;-144.05;83.14;125687.94;5031256;28;20140;-77
2022/09/29 01:11:51;;;;;;;20.75;12.27;;;6.40;99.90;;;-144.05;83.02;125687.94;5031986;28;20080;-77
2022/09/29 01:14:19;;;;;;;21.30;12.57;;;6.40;99.90;;;-144.05;83.56;125687.94;5033236;28;20026;-78
2022/09/29 01:16:45;;;;;;;18.90;11.82;;;6.40;99.90;;;-144.05;83.47;125687.94;5033080;28;20034;-77
2022/09/29 01:19:38;;;;;;;21.98;13.15;;;6.40;99.90;;;-144.05;83.65;125687.94;5032821;28;20025;-77
2022/09/29 01:23:05;;;;;;;20.17;12.45;;;6.40;99.90;;;-144.05;83.37;125687.94;5033112;28;20030;-79
2022/09/29 01:26:21;;;;;;;16.52;10.43;;;6.40;99.90;;;-144.05;83.51;125687.94;5033061;28;20029;-77
2022/09/29 01:29:39;;;;;;;18.15;11.77;;;6.40;99.90;;;-144.05;83.26;125687.94;5032560;28;20117;-77
2022/09/29 01:32:53;;;;;;;18.23;12.30;;;6.40;99.90;;;-144.05;83.41;125687.94;5012491;28;20117;-77
2022/09/29 01:35:51;;;;;;;18.10;11.75;;;6.40;99.90;;;-144.05;83.54;125687.94;5031955;28;20037;-76
2022/09/29 01:39:00;;;;;;;21.55;12.02;;;6.30;99.90;;;-144.05;83.59;125687.94;5030588;28;20033;-77
2022/09/29 01:41:59;;;;;;;18.60;12.05;;;6.40;99.90;;;-144.05;83.46;125687.94;5032135;28;20311;-77
2022/09/29 01:44:42;;;;;;;23.73;12.70;;;6.40;99.90;;;-144.05;83.24;125687.94;5031557;28;20025;-78
2022/09/29 01:47:18;;;;;;;20.38;12.88;;;6.40;99.90;;;-144.05;83.41;125687.94;5031945;28;20034;-77
2022/09/29 01:50:08;;;;;;;15.85;10.88;;;6.30;99.90;;;-144.05;83.31;125687.94;5030326;28;20033;-76
2022/09/29 01:52:45;;;;;;;19.00;11.65;;;6.40;99.90;;;-144.05;83.25;125687.94;5030874;28;20032;-77
2022/09/29 01:55:19;;;;;;;19.75;12.18;;;6.40;99.90;;;-144.05;83.05;125687.94;5031646;28;20325;-77
2022/09/29 01:57:57;;;;;;;17.85;11.75;;;6.30;99.90;;;-144.05;83.03;125687.94;5030505;28;20083;-77
2022/09/29 02:00:30;;;;;;;19.20;12.45;;;6.30;99.90;;;-144.05;83.33;125687.94;5037502;28;20589;-78
2022/09/29 02:03:25;;;;;;;17.98;12.27;;;6.30;99.90;;;-144.05;83.39;125687.94;5039085;28;20025;-78
2022/09/29 02:06:17;;;;;;;22.70;12.82;;;6.30;99.90;;;-144.05;83.62;125687.94;5038608;28;20056;-78
2022/09/29 02:08:51;;;;;;;20.42;11.65;;;6.20;99.90;;;-144.05;83.39;125687.94;5039200;28;20032;-78
2022/09/29 02:11:18;;;;;;;20.83;13.00;;;6.30;99.90;;;-144.05;83.34;125687.94;5038774;28;20083;-78
2022/09/29 02:14:23;;;;;;;19.10;13.38;;;6.20;99.90;;;-144.05;83.28;125687.94;5037403;28;20186;-78
2022/09/29 02:17:18;;;;;;;18.05;12.13;;;6.20;99.90;;;-144.05;83.37;125687.94;5037794;28;20049;-79
2022/09/29 02:19:49;;;;;;;17.98;11.30;;;6.20;99.90;;;-144.05;83.56;125687.94;5038762;28;20044;-78
2022/09/29 02:22:17;;;;;;;16.52;11.20;;;6.10;99.90;;;-144.05;83.14;125687.94;5037400;28;20480;-78
2022/09/29 02:24:44;;;;;;;16.55;12.10;;;6.10;99.90;;;-144.05;83.36;125687.94;5038627;28;20103;-76
2022/09/29 02:27:11;;;;;;;20.50;12.13;;;6.00;99.90;;;-144.05;83.24;125687.94;5038732;28;20034;-78
2022/09/29 02:29:38;;;;;;;15.48;10.02;;;6.00;99.90;;;-144.05;83.33;125687.94;5039372;28;20075;-78
2022/09/29 02:32:08;;;;;;;17.00;11.20;;;6.00;99.90;;;-144.05;83.30;125687.94;5038725;28;20065;-79
2022/09/29 02:34:44;;;;;;;18.00;12.05;;;6.00;99.90;;;-144.05;83.31;125687.94;5038625;28;20033;-77
2022/09/29 02:37:39;;;;;;;18.95;11.70;;;5.90;99.90;;;-144.05;83.21;125687.94;5051492;28;20029;-78
2022/09/29 02:40:58;;;;;;;18.63;11.85;;;5.80;99.90;;;-144.05;83.22;125687.94;5055669;28;20037;-78
2022/09/29 02:43:42;;;;;;;20.00;11.27;;;5.80;99.90;;;-144.05;83.22;125687.94;5043146;28;20612;-77
2022/09/29 02:46:54;;;;;;;18.80;12.05;;;5.80;99.90;;;-144.05;83.43;125687.94;5039239;28;20116;-77
2022/09/29 02:50:13;;;;;;;21.10;12.52;;;5.80;99.90;;;-144.05;83.49;125687.94;5040276;28;20026;-78
2022/09/29 02:52:53;;;;;;;17.67;10.82;;;5.70;99.90;;;-144.05;83.25;125687.94;5037946;28;20507;-77
2022/09/29 02:55:42;;;;;;;17.85;11.68;;;5.70;99.90;;;-144.05;83.39;125687.94;5038649;28;20125;-79
2022/09/29 02:58:37;;;;;;;19.85;12.88;;;5.60;99.90;;;-144.05;83.23;125687.94;5040081;28;20377;-77
2022/09/29 03:01:06;;;;;;;19.60;12.10;;;5.60;99.90;;;-144.05;83.27;125687.94;5038890;28;20033;-79
2022/09/29 03:03:32;;;;;;;17.38;11.43;;;5.60;99.90;;;-144.05;83.04;125687.94;5039700;28;20052;-79
2022/09/29 03:05:58;;;;;;;16.95;10.55;;;5.50;99.90;;;-144.05;83.11;125687.94;5039906;28;20038;-79
2022/09/29 03:08:24;;;;;;;16.05;10.88;;;5.40;99.90;;;-144.05;83.24;125687.94;5037330;28;20033;-78
2022/09/29 03:10:50;;;;;;;21.15;12.13;;;5.30;99.90;;;-144.05;83.41;125687.94;5037094;28;20493;-77
2022/09/29 03:13:15;;;;;;;18.95;12.02;;;5.20;99.90;;;-144.05;83.49;125687.94;5035987;28;20046;-77
2022/09/29 03:15:42;;;;;;;17.70;11.25;;;5.20;99.90;;;-144.05;83.38;125687.94;5033337;28;20036;-77
2022/09/29 03:18:08;;;;;;;18.48;11.73;;;5.20;99.90;;;-144.05;83.56;125687.94;5034405;28;20030;-78
2022/09/29 03:20:34;;;;;;;15.52;11.27;;;5.20;99.90;;;-144.05;83.44;125687.94;5034715;28;20100;-76
2022/09/29 03:23:00;;;;;;;18.38;11.77;;;5.20;99.90;;;-144.05;83.68;125687.94;5034578;28;20452;-78
2022/09/29 03:25:26;;;;;;;19.52;12.75;;;5.20;99.90;;;-144.05;83.73;125687.94;5035180;28;20037;-78
2022/09/29 03:27:51;;;;;;;19.38;12.40;;;5.20;99.90;;;-144.05;83.72;125687.94;5033846;28;20033;-78
2022/09/29 03:30:18;;;;;;;22.30;13.63;;;5.20;99.90;;;-144.05;83.77;125687.94;5034192;28;20033;-78
2022/09/29 03:32:44;;;;;;;19.88;12.77;;;5.20;99.90;;;-144.05;83.88;125687.94;5035688;28;20109;-77
2022/09/29 03:35:11;;;;;;;20.27;12.75;;;5.20;99.90;;;-144.05;84.02;125687.94;5035883;28;20032;-78
2022/09/29 03:37:37;;;;;;;22.27;12.98;;;5.20;99.90;;;-144.05;83.92;125687.94;5035829;28;20036;-78
2022/09/29 03:40:05;;;;;;;23.30;13.43;;;5.20;99.90;;;-144.05;83.99;125687.94;5034155;28;20025;-79
2022/09/29 03:42:31;;;;;;;20.58;13.30;;;5.20;99.90;;;-144.05;83.92;125687.94;5033799;28;20026;-78
2022/09/29 03:44:57;;;;;;;22.88;14.07;;;5.20;99.90;;;-144.05;83.91;125687.94;5033752;28;20496;-78
2022/09/29 03:47:23;;;;;;;24.00;14.90;;;5.20;99.90;;;-144.05;84.46;125687.94;5033694;28;20041;-77
2022/09/29 03:49:49;;;;;;;24.05;14.98;;;5.20;99.90;;;-144.05;84.38;125687.94;5033173;28;20030;-78
2022/09/29 03:52:16;;;;;;;21.52;14.65;;;5.30;99.90;;;-144.05;84.30;125687.94;5034554;28;20032;-79
2022/09/29 03:54:41;;;;;;;29.35;17.00;;;5.30;99.90;;;-144.05;84.37;125687.94;5034189;28;20484;-77
2022/09/29 03:57:07;;;;;;;29.42;16.10;;;5.30;99.90;;;-144.05;84.50;125687.94;5034283;28;20034;-78
2022/09/29 03:59:33;;;;;;;24.95;15.13;;;5.30;99.90;;;-144.05;84.34;125687.94;5033573;28;20045;-78
2022/09/29 04:01:59;;;;;;;26.75;15.38;;;5.30;99.90;;;-144.05;84.25;125687.94;5035049;28;20022;-78
2022/09/29 04:04:25;;;;;;;28.10;16.10;;;5.20;99.90;;;-144.05;84.94;125687.94;5033309;28;20038;-78
2022/09/29 04:06:51;;;;;;;39.13;18.38;;;5.30;99.90;;;-144.05;85.60;125687.94;5034619;28;20186;-78
2022/09/29 04:09:17;;;;;;;37.67;20.35;;;5.50;99.90;;;-144.05;86.14;125687.94;5034711;28;20025;-78
2022/09/29 04:11:42;;;;;;;31.13;17.90;;;5.50;99.90;;;-144.05;85.16;125687.94;5034613;28;20061;-77
2022/09/29 04:14:08;;;;;;;27.77;16.35;;;5.60;99.90;;;-144.05;84.87;125687.94;5033204;28;20038;-77
2022/09/29 04:16:34;;;;;;;24.17;15.15;;;5.50;99.90;;;-144.05;84.50;125687.94;5034640;28;20057;-77
2022/09/29 04:19:00;;;;;;;26.20;16.73;;;5.50;99.90;;;-144.05;85.07;125687.94;5034820;28;20459;-77
2022/09/29 04:21:26;;;;;;;30.58;17.00;;;5.50;99.90;;;-144.05;85.02;125687.94;5044152;28;20048;-78
2022/09/29 04:23:52;;;;;;;25.88;15.05;;;5.50;99.90;;;-144.05;85.12;125687.94;5035252;28;20045;-78
2022/09/29 04:26:19;;;;;;;26.27;16.75;;;5.50;99.90;;;-144.05;85.09;125687.94;5035409;28;20053;-77
2022/09/29 04:28:46;;;;;;;25.92;17.00;;;5.50;99.90;;;-144.05;85.46;125687.94;5035292;28;20432;-77
2022/09/29 04:31:12;;;;;;;31.67;19.17;;;5.60;99.90;;;-144.05;85.75;125687.94;5040821;28;20129;-80
2022/09/29 04:33:38;;;;;;;27.83;15.00;;;5.70;99.90;;;-144.05;85.11;125687.94;5040514;28;20365;-77
2022/09/29 04:36:05;;;;;;;25.20;15.07;;;5.70;99.90;;;-144.05;84.86;125687.94;5044631;28;20052;-78
2022/09/29 04:38:31;;;;;;;25.48;15.40;;;5.60;99.90;;;-144.05;84.77;125687.94;5037276;28;20052;-79
2022/09/29 04:40:57;;;;;;;25.05;15.35;;;5.60;99.90;;;-144.05;84.79;125687.94;5037071;28;20461;-78
2022/09/29 04:43:23;;;;;;;22.08;14.52;;;5.50;99.90;;;-144.05;84.75;125687.94;5036519;28;20108;-76
2022/09/29 04:45:49;;;;;;;28.83;16.15;;;5.50;99.90;;;-144.05;85.24;125687.94;5034380;28;20072;-76
2022/09/29 04:48:15;;;;;;;25.33;16.30;;;5.50;99.90;;;-144.05;84.99;125687.94;5035593;28;20103;-78
2022/09/29 04:50:42;;;;;;;26.65;17.33;;;5.50;99.90;;;-144.05;85.38;125687.94;5035618;28;20029;-77
2022/09/29 04:53:10;;;;;;;31.58;17.92;;;5.50;99.90;;;-144.05;85.83;125687.94;5035260;28;20362;-77
2022/09/29 04:55:38;;;;;;;34.58;18.50;;;5.60;99.90;;;-144.05;85.18;125687.94;5035585;28;20035;-79
2022/09/29 04:58:04;;;;;;;32.33;17.67;;;5.60;99.90;;;-144.05;85.66;125687.94;5033275;28;20029;-78
2022/09/29 05:00:31;;;;;;;32.38;18.63;;;5.70;99.90;;;-144.05;85.62;125687.94;5035317;28;20103;-77
2022/09/29 05:02:57;;;;;;;34.50;17.92;;;5.80;99.90;;;-144.05;85.42;125687.94;5034766;28;20029;-77
2022/09/29 05:05:23;;;;;;;34.58;19.17;;;5.80;99.90;;;-144.05;85.63;125687.94;5034865;28;20044;-78
2022/09/29 05:07:49;;;;;;;30.75;17.27;;;5.80;99.90;;;-144.05;85.30;125687.94;5034163;28;20075;-77
2022/09/29 05:10:15;;;;;;;28.73;17.02;;;5.80;99.90;;;-144.05;85.01;125687.94;5034830;28;20034;-76
2022/09/29 05:12:48;;;;;;;31.38;16.88;;;5.80;99.90;;;-144.05;85.04;125687.94;5035558;28;20055;-77
2022/09/29 05:15:19;;;;;;;25.67;16.10;;;5.80;99.90;;;-144.05;85.10;125687.94;5035481;28;20108;-77
2022/09/29 05:17:45;;;;;;;23.25;14.68;;;5.70;99.90;;;-144.05;84.84;125687.94;5035229;28;20443;-78
2022/09/29 05:20:12;;;;;;;21.10;13.30;;;5.70;99.90;;;-144.05;84.52;125687.94;5035664;28;20036;-77
2022/09/29 05:22:38;;;;;;;17.02;11.88;;;5.50;99.90;;;-144.05;84.40;125687.94;5034007;28;20025;-76
2022/09/29 05:25:07;;;;;;;22.50;13.07;;;5.30;99.90;;;-144.05;84.81;125687.94;5033202;28;20022;-77
2022/09/29 05:27:35;;;;;;;22.10;12.70;;;5.30;99.90;;;-144.05;84.74;125687.94;5032271;28;20029;-76
2022/09/29 05:30:02;;;;;;;22.05;14.38;;;5.20;99.90;;;-144.05;84.72;125687.94;5033282;28;20034;-80
2022/09/29 05:32:27;;;;;;;28.52;14.60;;;5.20;99.90;;;-144.05;84.92;125687.94;5034237;28;20032;-79
2022/09/29 05:34:53;;;;;;;24.35;14.07;;;5.30;99.90;;;-144.05;84.89;125687.94;5032147;28;20396;-78
2022/09/29 05:37:19;;;;;;;24.55;14.95;;;5.20;99.90;;;-144.05;84.49;125687.94;5033870;28;20099;-79
2022/09/29 05:39:46;;;;;;;24.70;14.38;;;5.10;99.90;;;-144.05;83.88;125687.94;5034390;28;20440;-77
2022/09/29 05:42:12;;;;;;;20.88;12.60;;;5.10;99.90;;;-144.05;84.01;125687.94;5034872;28;20084;-76
2022/09/29 05:44:38;;;;;;;24.77;14.05;;;5.00;99.90;;;-144.05;83.84;125687.94;5033470;28;20084;-77
2022/09/29 05:47:04;;;;;;;23.20;13.50;;;5.00;99.90;;;-144.05;83.83;125687.94;5034539;28;20029;-77
2022/09/29 05:49:31;;;;;;;31.17;14.18;;;5.00;99.90;;;-144.05;83.91;125687.94;5035205;28;20059;-76
2022/09/29 05:51:58;;;;;;;25.02;14.60;;;4.90;99.90;;;-144.05;83.83;125687.94;5036178;28;20021;-78
2022/09/29 05:54:26;;;;;;;21.38;13.35;;;4.90;99.90;;;-144.05;83.74;125687.94;5034389;28;20492;-78
2022/09/29 05:56:52;;;;;;;25.13;14.07;;;4.90;99.90;;;-144.05;83.72;125687.94;5036382;28;20393;-79
2022/09/29 05:59:18;;;;;;;19.52;11.45;;;5.00;99.90;;;-144.05;83.76;125687.94;5035864;28;20485;-80
2022/09/29 06:01:44;;;;;;;22.38;12.57;;;4.90;99.90;;;-144.05;83.78;125687.94;5034687;28;20036;-78
2022/09/29 06:04:11;;;;;;;20.73;12.40;;;4.90;99.90;;;-144.05;84.06;125687.94;5035864;28;20112;-80
2022/09/29 06:06:39;;;;;;;22.17;13.20;;;4.90;99.90;;;-144.05;84.24;125687.94;5036746;28;20025;-80
2022/09/29 06:09:06;;;;;;;23.10;14.68;;;5.00;99.90;;;-144.05;84.52;125687.94;5034448;28;20021;-78
2022/09/29 06:11:32;;;;;;;32.88;15.40;;;5.10;99.90;;;-144.05;84.67;125687.94;5032947;28;20057;-80
2022/09/29 06:14:01;;;;;;;23.23;14.75;;;5.30;99.90;;;-144.05;84.55;125687.94;5033042;28;20025;-79
2022/09/29 06:16:31;;;;;;;27.20;16.27;;;5.50;99.90;;;-144.05;84.93;125687.94;5031987;28;20034;-77
2022/09/29 06:19:00;;;;;;;30.25;16.08;;;5.60;99.90;;;-144.05;84.80;125687.94;5032541;28;20029;-77
2022/09/29 06:21:28;;;;;;;23.67;13.50;;;5.80;99.90;;;-144.05;84.46;125687.94;5032828;28;20122;-77
2022/09/29 06:23:56;;;;;;;21.50;14.40;;;6.00;99.90;;;-144.05;84.48;125687.94;5030787;28;20088;-77
2022/09/29 06:26:25;;;;;;;21.27;13.27;;;6.10;99.90;;;-144.05;84.33;125687.94;5032463;28;20060;-77
2022/09/29 06:28:54;;;;;;;24.23;13.48;;;6.30;99.90;;;-144.05;84.39;125687.94;5032568;28;20104;-79
2022/09/29 06:31:26;;;;;;;23.85;14.10;;;6.50;99.90;;;-144.05;84.57;125687.94;5047671;28;20056;-77
2022/09/29 06:33:55;;;;;;;22.17;13.25;;;6.70;99.90;;;-144.05;84.71;125687.94;5031312;28;20033;-78
2022/09/29 06:39:22;;;;;;;18.70;12.13;;;7.10;99.90;;;-144.05;85.11;125687.94;5032851;28;20041;-76
2022/09/29 06:41:52;;;;;;;21.15;13.00;;;7.40;99.90;;;-144.05;84.99;125687.94;5032833;28;20029;-78
2022/09/29 06:44:19;;;;;;;16.67;11.07;;;7.60;99.90;;;-144.05;84.28;125687.94;5032621;28;20033;-78
2022/09/29 06:46:45;;;;;;;17.02;10.27;;;7.80;99.90;;;-144.05;83.69;125687.94;5034433;28;20037;-78
2022/09/29 06:49:14;;;;;;;16.20;12.40;;;7.90;99.90;;;-144.05;82.30;125687.94;5035951;28;20408;-78
2022/09/29 06:51:41;;;;;;;19.85;11.45;;;8.10;99.90;;;-144.05;81.05;125687.94;5035863;28;20039;-77
2022/09/29 06:54:07;;;;;;;17.05;11.98;;;8.30;99.90;;;-144.05;79.79;125687.94;5035905;28;20087;-76
2022/09/29 06:56:33;;;;;;;13.13;10.73;;;8.50;99.90;;;-144.05;78.43;125687.94;5035630;28;20436;-78
2022/09/29 06:58:59;;;;;;;14.20;10.63;;;8.60;99.90;;;-144.05;77.29;125687.94;5036114;28;20018;-77
2022/09/29 07:01:25;;;;;;;15.43;10.02;;;8.80;99.90;;;-144.05;75.99;125687.94;5035750;28;20034;-77
2022/09/29 07:03:51;;;;;;;17.95;10.07;;;9.10;99.90;;;-144.05;74.59;125687.94;5035457;28;20393;-78
2022/09/29 07:06:16;;;;;;;16.25;10.55;;;9.30;99.90;;;-144.05;72.30;125687.94;5035790;28;20034;-79
2022/09/29 07:08:43;;;;;;;14.15;9.60;;;9.40;99.90;;;-144.05;72.09;125687.94;5036004;28;20057;-77
2022/09/29 07:11:10;;;;;;;14.15;9.57;;;9.60;99.90;;;-144.05;71.18;125687.94;5035665;28;20026;-78
2022/09/29 07:13:37;;;;;;;16.77;10.65;;;9.80;99.90;;;-144.05;70.63;125687.94;5035801;28;20045;-77
2022/09/29 07:16:12;;;;;;;14.63;9.65;;;9.90;99.90;;;-144.05;69.46;125687.94;5036192;28;20033;-78
2022/09/29 07:18:41;;;;;;;13.00;9.35;;;10.00;99.90;;;-144.05;69.40;125687.94;5043522;28;20025;-77
2022/09/29 07:21:15;;;;;;;16.13;9.50;;;10.20;99.90;;;-144.05;69.11;125687.94;5044111;28;20039;-77
2022/09/29 07:23:41;;;;;;;11.57;8.93;;;10.50;99.90;;;-144.05;67.62;125687.94;5045101;28;20025;-77
2022/09/29 07:26:07;;;;;;;13.55;9.93;;;10.70;99.90;;;-144.05;66.96;125687.94;5035648;28;20369;-78
2022/09/29 07:28:35;;;;;;;13.02;9.60;;;10.80;99.90;;;-144.05;66.04;125687.94;5035189;28;20029;-77
2022/09/29 07:31:10;;;;;;;12.98;9.18;;;10.80;99.90;;;-144.05;66.30;125687.94;5034386;28;20080;-77
2022/09/29 07:33:35;;;;;;;11.95;8.43;;;11.00;99.90;;;-144.05;66.25;125687.94;5034994;28;20033;-77
2022/09/29 07:36:02;;;;;;;11.20;8.77;;;11.10;99.90;;;-144.05;64.70;125687.94;5033672;28;20044;-79
2022/09/29 07:38:31;;;;;;;13.57;8.95;;;11.20;99.90;;;-144.05;65.25;125687.94;5033138;28;20112;-78
2022/09/29 07:41:10;;;;;;;14.27;9.13;;;11.40;99.90;;;-144.05;64.23;125687.94;5034705;28;20063;-77
2022/09/29 07:43:38;;;;;;;11.73;8.45;;;11.50;99.90;;;-144.05;63.93;125687.94;5034657;28;20075;-78
2022/09/29 07:46:05;;;;;;;12.35;9.10;;;11.70;99.90;;;-144.05;62.86;125687.94;5034252;28;20457;-77
2022/09/29 07:48:33;;;;;;;10.90;7.90;;;11.90;99.90;;;-144.05;63.23;125687.94;5033803;28;20034;-79
2022/09/29 07:51:08;;;;;;;9.60;7.65;;;12.00;99.90;;;-144.05;63.37;125687.94;5034676;28;20128;-79
2022/09/29 07:53:36;;;;;;;10.65;8.05;;;12.20;99.90;;;-144.05;61.97;125687.94;5035035;28;20033;-76
2022/09/29 07:56:10;;;;;;;10.75;7.70;;;12.50;99.90;;;-144.05;60.67;125687.94;5035117;28;20171;-77
2022/09/29 07:58:37;;;;;;;9.38;7.72;;;12.70;99.90;;;-144.05;60.48;125687.94;5034100;28;20038;-77
2022/09/29 08:01:09;;;;;;;9.98;7.55;;;12.90;99.90;;;-144.05;60.43;125687.94;5035203;28;20017;-76
2022/09/29 08:03:37;;;;;;;12.27;7.70;;;13.20;99.90;;;-144.05;58.87;125687.94;5034681;28;20105;-77
2022/09/29 08:06:05;;;;;;;10.77;7.60;;;13.20;99.90;;;-144.05;58.78;125687.94;5034768;28;20025;-76
2022/09/29 08:08:30;;;;;;;10.32;6.93;;;13.20;99.90;;;-144.05;58.31;125687.94;5034471;28;20044;-77
2022/09/29 08:11:19;;;;;;;10.32;6.75;;;13.30;99.90;;;-144.05;58.58;125687.94;5033466;28;20113;-78
2022/09/29 08:13:47;;;;;;;8.73;6.38;;;13.30;99.90;;;-144.05;59.40;125687.94;5033927;28;20096;-77
2022/09/29 08:16:14;;;;;;;8.57;7.18;;;13.40;99.90;;;-144.05;59.25;125687.94;5035168;28;20085;-78
2022/09/29 08:18:42;;;;;;;11.38;6.97;;;13.40;99.90;;;-144.05;58.70;125687.94;5035158;28;20040;-78
2022/09/29 08:21:10;;;;;;;11.15;6.22;;;13.60;99.90;;;-144.05;57.08;125687.94;5033526;28;20053;-78
2022/09/29 08:23:42;;;;;;;10.15;7.35;;;13.60;99.90;;;-144.05;58.00;125687.94;5034859;28;20037;-78
2022/09/29 08:26:20;;;;;;;10.60;7.55;;;13.80;99.90;;;-144.05;58.24;125687.94;5034764;28;20139;-79
2022/09/29 08:28:47;;;;;;;8.43;5.82;;;13.90;99.90;;;-144.05;57.01;125687.94;5032567;28;20523;-77
2022/09/29 08:31:21;;;;;;;11.38;6.30;;;14.10;99.90;;;-144.05;56.85;125687.94;5032778;28;20032;-77
2022/09/29 08:33:50;;;;;;;12.13;7.15;;;14.30;99.90;;;-144.05;56.13;125687.94;5033690;28;20029;-77
2022/09/29 08:36:19;;;;;;;10.02;6.25;;;14.20;99.90;;;-144.05;56.48;125687.94;5035036;28;20400;-78
2022/09/29 08:38:52;;;;;;;6.55;5.43;;;14.50;99.90;;;-144.05;55.46;125687.94;5034946;28;20116;-77
2022/09/29 08:41:32;;;;;;;16.13;6.03;;;14.80;99.90;;;-144.05;55.36;125687.94;5034465;28;20025;-79
2022/09/29 08:47:05;;;;;;;8.13;6.18;;;14.80;99.90;;;-144.05;53.25;125687.94;5052817;28;20060;-76
2022/09/29 08:49:53;;;;;;;9.35;5.55;;;15.10;99.90;;;-144.05;53.03;125687.94;5054369;28;20024;-80
2022/09/29 08:52:30;;;;;;;6.55;5.22;;;15.20;99.90;;;-144.05;53.08;125687.94;5052619;28;20025;-79
2022/09/29 08:55:16;;;;;;;7.30;5.05;;;15.40;99.90;;;-144.05;52.43;125687.94;5050785;28;20481;-79
2022/09/29 08:57:46;;;;;;;12.15;5.72;;;15.60;99.90;;;-144.05;51.11;125687.94;5025132;28;20044;-78
2022/09/29 09:00:22;;;;;;;5.68;4.60;;;15.70;99.90;;;-144.05;51.21;125687.94;5033674;28;20382;-77
2022/09/29 09:03:23;;;;;;;6.32;4.43;;;15.90;99.90;;;-144.05;50.32;125687.94;5033505;28;20032;-78
2022/09/29 09:06:32;;;;;;;7.93;5.10;;;15.90;99.90;;;-144.05;50.12;125687.94;5032413;28;20033;-79
2022/09/29 09:10:10;;;;;;;5.95;4.07;;;16.10;99.90;;;-144.05;49.52;125687.94;5032189;28;20022;-77
2022/09/29 09:13:07;;;;;;;6.25;3.72;;;16.10;99.90;;;-144.05;49.48;125687.94;4981624;28;20513;-75
2022/09/29 09:16:09;;;;;;;7.47;3.47;;;16.30;99.90;;;-144.05;49.22;125687.94;5033986;28;20383;-79
2022/09/29 09:18:50;;;;;;;8.45;4.05;;;16.60;99.90;;;-144.05;48.06;125687.94;5027005;28;20046;-78
2022/09/29 09:21:42;;;;;;;9.18;4.50;;;16.70;99.90;;;-144.05;46.25;125687.94;5033298;28;20116;-78
2022/09/29 09:24:55;;;;;;;5.78;4.18;;;16.60;99.90;;;-144.05;46.67;125687.94;5032264;28;20029;-79
2022/09/29 09:27:36;;;;;;;5.15;3.63;;;16.50;99.90;;;-144.05;47.58;125687.94;5027090;28;20098;-79
2022/09/29 09:30:15;;;;;;;8.40;4.07;;;16.80;99.90;;;-144.05;47.13;125687.94;5033218;28;20029;-77
2022/09/29 09:33:18;;;;;;;8.45;3.75;;;16.60;99.90;;;-144.05;47.70;125687.94;5033427;28;20036;-79
2022/09/29 09:36:01;;;;;;;5.07;2.95;;;16.00;99.90;;;-144.05;49.15;125687.94;5033479;28;20033;-77
2022/09/29 09:38:49;;;;;;;5.82;3.45;;;15.40;99.90;;;-144.05;49.66;125687.94;5032344;28;20407;-78
2022/09/29 09:41:21;;;;;;;5.82;2.72;;;15.00;99.90;;;-144.05;49.52;125687.94;5033176;28;20056;-79
2022/09/29 09:44:10;;;;;;;4.43;3.15;;;15.10;99.90;;;-144.05;47.74;125687.94;5031314;28;20485;-77
2022/09/29 09:46:55;;;;;;;3.58;2.33;;;15.30;99.90;;;-144.05;48.25;125687.94;5032518;28;20095;-79
2022/09/29 09:49:44;;;;;;;7.63;2.97;;;15.20;99.90;;;-144.05;49.44;125687.94;5048680;28;20029;-77
2022/09/29 09:52:52;;;;;;;5.15;2.88;;;14.70;99.90;;;-144.05;50.56;125687.94;5032981;28;20036;-77
2022/09/29 09:55:23;;;;;;;7.53;2.90;;;14.50;99.90;;;-144.05;49.38;125687.94;5022630;28;20041;-79
2022/09/29 09:58:57;;;;;;;4.93;2.88;;;14.90;99.90;;;-144.05;48.46;125687.94;5032130;28;20512;-78
2022/09/29 10:01:25;;;;;;;8.88;3.40;;;15.60;99.90;;;-144.05;45.73;125687.94;5033310;28;20029;-77
2022/09/29 10:03:51;;;;;;;6.00;2.47;;;16.20;99.90;;;-144.05;45.80;125687.94;5031859;28;20025;-78
2022/09/29 10:06:17;;;;;;;6.30;2.67;;;16.50;99.90;;;-144.05;46.02;125687.94;5033659;28;20052;-79
2022/09/29 10:08:43;;;;;;;3.78;2.75;;;16.70;99.90;;;-144.05;43.87;125687.94;5032958;28;20051;-77
2022/09/29 10:11:29;;;;;;;7.43;3.15;;;16.60;99.90;;;-144.05;44.20;125687.94;5033539;28;20051;-80
2022/09/29 10:14:18;;;;;;;5.18;2.40;;;16.70;99.90;;;-144.05;44.08;125687.94;5044715;28;20045;-78
2022/09/29 10:16:52;;;;;;;7.53;3.92;;;17.00;99.90;;;-144.05;43.00;125687.94;5044667;28;20247;-80
2022/09/29 10:20:03;;;;;;;3.92;2.75;;;17.40;99.90;;;-144.05;42.55;125687.94;5046321;28;20033;-78
2022/09/29 10:22:30;;;;;;;3.80;2.33;;;17.60;99.90;;;-144.05;43.22;125687.94;5037156;28;20060;-81
2022/09/29 10:25:18;;;;;;;3.25;2.20;;;17.50;99.90;;;-144.05;41.14;125687.94;5036968;28;20050;-77
2022/09/29 10:27:56;;;;;;;5.88;2.05;;;17.50;99.90;;;-144.05;41.48;125687.94;5036916;28;20465;-79
2022/09/29 10:30:35;;;;;;;2.75;2.10;;;17.50;99.90;;;-144.05;42.04;125687.94;5036809;28;20029;-78
2022/09/29 10:33:05;;;;;;;4.05;2.10;;;17.40;99.90;;;-144.05;41.19;125687.94;5035442;28;20068;-78